Time;durP1;ratioP1;P1;durP2;ratioP2;P2;SDS_P1;SDS_P2;PMS_P1;PMS_P2;Temp;Humidity;BMP_temperature;BMP_pressure;BME280_temperature;BME280_humidity;BME280_pressure;Samples;Min_cycle;Max_cycle;Signal;HPM_P1;HPM_P2
2022/04/11 00:01:55;;;;;;;2.85;1.35;;;5.80;80.30;;;;;;5036135;28;20394;-68
2022/04/11 00:04:20;;;;;;;4.90;2.05;;;5.80;81.50;;;;;;5038555;28;20136;-68
2022/04/11 00:06:46;;;;;;;2.28;1.33;;;5.70;82.10;;;;;;5046726;28;20025;-69
2022/04/11 00:09:11;;;;;;;1.85;1.30;;;5.70;82.50;;;;;;5037823;28;20033;-69
2022/04/11 00:11:37;;;;;;;8.27;3.55;;;5.70;82.00;;;;;;5040154;28;20037;-69
2022/04/11 00:14:04;;;;;;;6.72;3.38;;;5.70;80.80;;;;;;5038041;28;20048;-69
2022/04/11 00:16:30;;;;;;;10.25;4.47;;;5.80;80.80;;;;;;5040904;28;20032;-69
2022/04/11 00:18:56;;;;;;;36.63;14.43;;;6.00;80.30;;;;;;5039998;28;20025;-68
2022/04/11 00:21:22;;;;;;;4.20;2.17;;;6.20;79.50;;;;;;5041891;28;20052;-68
2022/04/11 00:23:48;;;;;;;3.38;2.25;;;6.20;79.60;;;;;;5039577;28;20087;-68
2022/04/11 00:26:13;;;;;;;22.52;10.88;;;6.20;79.20;;;;;;5040745;28;20086;-68
2022/04/11 00:28:39;;;;;;;9.32;4.80;;;6.20;79.30;;;;;;5041143;28;20029;-69
2022/04/11 00:31:05;;;;;;;5.68;2.88;;;6.20;80.90;;;;;;5036600;28;20043;-68
2022/04/11 00:33:30;;;;;;;4.70;2.20;;;6.00;80.30;;;;;;5038217;28;20065;-68
2022/04/11 00:35:56;;;;;;;1.90;1.00;;;5.90;81.40;;;;;;5043615;28;20064;-69
2022/04/11 00:38:22;;;;;;;1.90;1.17;;;5.70;80.70;;;;;;5040358;28;20534;-69
2022/04/11 00:40:47;;;;;;;7.10;3.38;;;5.70;81.80;;;;;;5034452;28;20703;-69
2022/04/11 00:43:52;;;;;;;1.88;1.13;;;5.80;81.70;;;;;;5036776;28;20132;-68
2022/04/11 00:46:17;;;;;;;5.28;1.98;;;5.70;80.90;;;;;;4995283;28;20049;-69
2022/04/11 00:48:43;;;;;;;52.92;24.85;;;5.50;80.80;;;;;;4993054;28;20034;-69
2022/04/11 00:51:17;;;;;;;8.50;4.93;;;5.50;82.40;;;;;;5014604;28;20140;-69
2022/04/11 00:53:45;;;;;;;3.92;2.22;;;5.60;81.60;;;;;;5039767;28;20021;-68
2022/04/11 00:56:13;;;;;;;2.35;1.10;;;5.80;80.70;;;;;;5038723;28;20513;-69
2022/04/11 00:58:39;;;;;;;4.85;2.33;;;6.00;80.10;;;;;;5038502;28;20434;-69
2022/04/11 01:01:07;;;;;;;2.50;1.60;;;5.80;81.10;;;;;;5041424;28;20064;-69
2022/04/11 01:03:33;;;;;;;1.05;1.05;;;5.70;81.60;;;;;;5037112;28;20025;-69
2022/04/11 01:06:00;;;;;;;3.05;0.93;;;5.40;83.50;;;;;;5038494;28;20041;-69
2022/04/11 01:08:26;;;;;;;1.45;0.73;;;5.20;83.90;;;;;;5033136;28;20091;-69
2022/04/11 01:10:55;;;;;;;2.60;1.90;;;5.10;84.50;;;;;;5034530;28;20033;-69
2022/04/11 01:13:21;;;;;;;1.42;0.80;;;5.00;84.00;;;;;;5034095;28;20029;-69
2022/04/11 01:15:58;;;;;;;2.80;1.27;;;5.00;83.70;;;;;;5036635;28;20033;-70
2022/04/11 01:18:24;;;;;;;1.17;0.65;;;4.90;84.30;;;;;;5033145;28;20382;-69
2022/04/11 01:20:50;;;;;;;1.85;0.70;;;5.00;84.50;;;;;;5037419;28;20052;-70
2022/04/11 01:23:16;;;;;;;2.08;0.80;;;5.10;84.00;;;;;;5034537;28;20592;-70
2022/04/11 01:25:42;;;;;;;2.40;0.90;;;5.10;84.40;;;;;;5040808;28;20044;-69
2022/04/11 01:28:09;;;;;;;3.70;1.70;;;5.10;84.20;;;;;;5037824;28;20076;-71
2022/04/11 01:30:34;;;;;;;3.25;0.90;;;5.10;84.00;;;;;;5034213;28;20041;-70
2022/04/11 01:33:00;;;;;;;2.13;0.82;;;5.20;83.70;;;;;;5038788;28;20033;-70
2022/04/11 01:35:27;;;;;;;2.90;0.90;;;5.10;84.20;;;;;;5040310;28;20037;-70
2022/04/11 01:37:54;;;;;;;1.27;0.70;;;5.10;83.80;;;;;;5037178;28;20033;-70
2022/04/11 01:40:20;;;;;;;1.20;1.00;;;5.00;84.60;;;;;;5039911;28;20055;-70
2022/04/11 01:42:46;;;;;;;3.40;1.00;;;5.00;84.70;;;;;;5040192;28;20059;-70
2022/04/11 01:45:13;;;;;;;3.65;1.20;;;4.90;85.20;;;;;;5038192;28;20025;-70
2022/04/11 01:47:40;;;;;;;2.15;1.08;;;4.90;85.40;;;;;;5042170;28;20406;-67
2022/04/11 01:50:10;;;;;;;0.93;0.68;;;5.00;84.60;;;;;;5037499;28;20033;-67
2022/04/11 01:52:36;;;;;;;5.55;2.20;;;4.80;85.50;;;;;;5037397;28;20032;-67
2022/04/11 01:55:03;;;;;;;2.53;1.30;;;4.80;86.60;;;;;;5037886;28;20033;-66
2022/04/11 01:57:29;;;;;;;12.27;4.60;;;4.80;86.00;;;;;;5043156;28;20035;-67
2022/04/11 01:59:55;;;;;;;3.92;1.45;;;4.90;85.90;;;;;;5038320;28;20102;-66
2022/04/11 02:02:20;;;;;;;1.67;0.90;;;4.90;86.20;;;;;;5039612;28;20455;-67
2022/04/11 02:04:46;;;;;;;2.10;0.98;;;4.70;86.90;;;;;;5033951;28;20048;-66
2022/04/11 02:07:12;;;;;;;8.75;2.60;;;4.80;87.00;;;;;;5040324;28;20621;-67
2022/04/11 02:09:37;;;;;;;4.57;2.03;;;4.90;86.00;;;;;;5036748;28;20037;-67
2022/04/11 02:12:03;;;;;;;2.83;1.33;;;5.00;85.80;;;;;;5037833;28;20043;-66
2022/04/11 02:14:29;;;;;;;3.30;1.17;;;4.80;86.10;;;;;;5040321;28;20034;-67
2022/04/11 02:16:55;;;;;;;4.40;0.85;;;4.80;86.90;;;;;;5034326;28;20037;-67
2022/04/11 02:19:21;;;;;;;1.83;0.90;;;4.90;86.70;;;;;;5036459;28;20801;-67
2022/04/11 02:21:46;;;;;;;3.95;1.35;;;4.90;86.50;;;;;;5037289;28;20033;-67
2022/04/11 02:24:12;;;;;;;20.30;10.38;;;4.70;87.10;;;;;;5035704;28;20037;-66
2022/04/11 02:26:37;;;;;;;4.07;1.65;;;4.80;88.00;;;;;;5042127;28;20485;-66
2022/04/11 02:29:03;;;;;;;2.28;1.55;;;4.70;87.50;;;;;;5036713;28;20068;-67
2022/04/11 02:31:29;;;;;;;1.77;1.27;;;4.50;88.20;;;;;;5036030;28;20040;-67
2022/04/11 02:33:54;;;;;;;3.03;1.10;;;4.60;88.30;;;;;;5033565;28;20072;-66
2022/04/11 02:36:20;;;;;;;1.95;0.93;;;4.60;88.10;;;;;;5036405;28;20136;-67
2022/04/11 02:38:46;;;;;;;1.55;1.13;;;4.30;89.00;;;;;;5036951;28;20084;-66
2022/04/11 02:41:11;;;;;;;2.33;1.58;;;4.20;90.20;;;;;;5038090;28;20064;-66
2022/04/11 02:43:37;;;;;;;1.83;1.40;;;4.20;90.50;;;;;;5039169;28;20044;-66
2022/04/11 02:46:03;;;;;;;1.85;0.95;;;4.30;90.60;;;;;;5037481;28;20083;-67
2022/04/11 02:48:28;;;;;;;2.45;0.90;;;4.30;90.20;;;;;;5036897;28;20124;-67
2022/04/11 02:50:54;;;;;;;3.42;2.17;;;4.00;90.10;;;;;;5039585;28;20152;-66
2022/04/11 02:53:19;;;;;;;1.77;1.20;;;3.80;90.90;;;;;;5033127;28;20309;-66
2022/04/11 02:55:45;;;;;;;2.28;1.00;;;3.70;91.20;;;;;;5038503;28;20091;-67
2022/04/11 02:58:11;;;;;;;2.47;1.60;;;3.50;91.40;;;;;;5037602;28;20095;-67
2022/04/11 03:00:36;;;;;;;2.75;1.63;;;3.50;91.90;;;;;;5038468;28;20045;-67
2022/04/11 03:03:03;;;;;;;2.95;1.52;;;3.70;91.50;;;;;;5032444;28;20607;-67
2022/04/11 03:05:29;;;;;;;1.55;0.98;;;3.90;91.50;;;;;;5038442;28;20095;-67
2022/04/11 03:07:55;;;;;;;2.75;1.08;;;3.80;91.70;;;;;;5035300;28;20037;-67
2022/04/11 03:10:20;;;;;;;2.40;0.90;;;3.70;91.50;;;;;;5032658;28;20168;-67
2022/04/11 03:12:46;;;;;;;4.40;0.75;;;3.40;91.80;;;;;;5036005;28;20029;-67
2022/04/11 03:15:12;;;;;;;1.98;1.17;;;3.10;92.20;;;;;;5039101;28;20083;-66
2022/04/11 03:17:38;;;;;;;2.10;1.23;;;3.00;93.10;;;;;;5036167;28;20033;-67
2022/04/11 03:20:04;;;;;;;2.88;1.33;;;3.20;92.80;;;;;;5038891;28;20044;-67
2022/04/11 03:22:30;;;;;;;1.67;1.20;;;3.50;92.70;;;;;;5033815;28;20064;-66
2022/04/11 03:24:55;;;;;;;2.60;1.10;;;3.70;92.10;;;;;;5034441;28;20479;-67
2022/04/11 03:27:21;;;;;;;2.15;0.95;;;3.50;92.30;;;;;;5034467;28;20030;-67
2022/04/11 03:29:46;;;;;;;2.10;1.10;;;3.30;92.10;;;;;;5039207;28;20628;-66
2022/04/11 03:32:12;;;;;;;1.90;0.80;;;3.00;93.10;;;;;;5039032;28;20423;-67
2022/04/11 03:34:38;;;;;;;2.88;1.08;;;3.10;93.30;;;;;;5032825;28;20041;-67
2022/04/11 03:37:04;;;;;;;1.10;0.85;;;3.10;93.50;;;;;;5037549;28;20049;-66
2022/04/11 03:39:30;;;;;;;3.13;1.20;;;3.40;93.00;;;;;;5037019;28;20125;-71
2022/04/11 03:41:55;;;;;;;2.33;1.30;;;3.60;92.80;;;;;;5040772;28;20432;-70
2022/04/11 03:44:21;;;;;;;10.38;3.78;;;3.80;92.70;;;;;;5041946;28;20684;-70
2022/04/11 03:46:47;;;;;;;2.38;1.60;;;3.90;92.60;;;;;;5040195;28;20983;-70
2022/04/11 03:49:12;;;;;;;3.17;1.50;;;3.80;92.90;;;;;;5041211;28;20045;-70
2022/04/11 03:51:38;;;;;;;2.47;1.20;;;3.70;93.40;;;;;;5046102;28;20409;-70
2022/04/11 03:54:04;;;;;;;2.47;1.02;;;3.70;93.20;;;;;;5041653;28;20029;-70
2022/04/11 03:56:30;;;;;;;5.60;1.50;;;3.60;93.20;;;;;;5039129;28;20072;-70
2022/04/11 03:58:55;;;;;;;3.85;1.60;;;3.40;93.90;;;;;;5040908;28;20612;-70
2022/04/11 04:01:21;;;;;;;2.33;1.45;;;3.50;93.90;;;;;;5037900;28;20029;-70
2022/04/11 04:03:47;;;;;;;1.70;1.42;;;3.60;93.80;;;;;;5039742;28;20062;-70
2022/04/11 04:06:12;;;;;;;3.47;1.80;;;3.60;94.00;;;;;;5040710;28;20329;-70
2022/04/11 04:08:38;;;;;;;1.83;1.10;;;3.60;93.50;;;;;;5040505;28;20524;-70
2022/04/11 04:11:04;;;;;;;2.65;1.33;;;3.40;93.50;;;;;;5038193;28;20079;-70
2022/04/11 04:13:29;;;;;;;3.05;1.20;;;3.40;93.70;;;;;;5038815;28;20033;-70
2022/04/11 04:15:55;;;;;;;4.75;1.80;;;3.40;93.70;;;;;;5037636;28;20048;-69
2022/04/11 04:18:22;;;;;;;1.70;1.15;;;3.50;93.60;;;;;;5040563;28;20855;-69
2022/04/11 04:20:47;;;;;;;5.13;1.85;;;3.40;93.40;;;;;;5039667;28;20073;-70
2022/04/11 04:23:13;;;;;;;5.78;2.40;;;3.30;94.00;;;;;;5038863;28;20338;-69
2022/04/11 04:25:39;;;;;;;9.45;4.07;;;3.50;94.10;;;;;;5040537;28;20486;-70
2022/04/11 04:28:05;;;;;;;18.95;11.90;;;3.60;93.90;;;;;;5041665;28;20397;-72
2022/04/11 04:30:30;;;;;;;6.13;2.55;;;3.60;94.30;;;;;;5030764;28;20057;-70
2022/04/11 04:32:59;;;;;;;2.40;1.45;;;3.50;93.90;;;;;;5041734;28;20032;-69
2022/04/11 04:35:25;;;;;;;3.97;1.67;;;3.20;94.80;;;;;;5037938;28;20037;-69
2022/04/11 04:37:52;;;;;;;2.47;1.40;;;3.20;94.80;;;;;;5038638;28;20047;-69
2022/04/11 04:40:18;;;;;;;2.58;1.20;;;3.10;94.90;;;;;;5041766;28;20099;-70
2022/04/11 04:42:43;;;;;;;1.73;1.10;;;3.10;94.90;;;;;;5042690;28;20508;-69
2022/04/11 04:45:09;;;;;;;2.38;1.25;;;3.30;94.40;;;;;;5037212;28;20055;-69
2022/04/11 04:47:35;;;;;;;3.50;1.83;;;3.50;94.10;;;;;;5042780;28;20021;-70
2022/04/11 04:50:01;;;;;;;9.00;2.58;;;3.80;93.90;;;;;;5040236;28;20044;-69
2022/04/11 04:52:26;;;;;;;5.90;2.15;;;3.90;93.70;;;;;;5033478;28;20086;-69
2022/04/11 04:54:52;;;;;;;5.88;3.85;;;3.90;94.10;;;;;;5030735;28;20034;-69
2022/04/11 04:57:18;;;;;;;6.55;3.35;;;4.00;94.00;;;;;;5031671;28;20112;-69
2022/04/11 04:59:43;;;;;;;4.78;2.38;;;4.20;94.00;;;;;;5031166;28;20048;-69
2022/04/11 05:02:09;;;;;;;10.75;4.40;;;4.10;94.10;;;;;;5030516;28;20097;-70
2022/04/11 05:04:34;;;;;;;6.55;4.35;;;4.20;94.20;;;;;;5030887;28;20035;-69
2022/04/11 05:07:00;;;;;;;5.60;2.65;;;4.40;94.60;;;;;;5030946;28;20033;-70
2022/04/11 05:09:26;;;;;;;11.48;7.57;;;4.40;94.30;;;;;;5032115;28;20033;-69
2022/04/11 05:11:51;;;;;;;16.00;10.23;;;4.40;94.80;;;;;;5031346;28;20446;-71
2022/04/11 05:14:17;;;;;;;15.02;10.52;;;4.30;94.80;;;;;;5031227;28;20233;-71
2022/04/11 05:16:43;;;;;;;8.18;5.28;;;4.50;94.90;;;;;;5031728;28;20029;-70
2022/04/11 05:19:09;;;;;;;12.85;7.07;;;4.60;94.80;;;;;;5032509;28;20052;-69
2022/04/11 05:21:34;;;;;;;11.35;8.05;;;4.70;94.90;;;;;;5028018;28;20057;-69
2022/04/11 05:24:00;;;;;;;28.10;18.85;;;4.90;94.40;;;;;;5029734;28;20072;-70
2022/04/11 05:26:26;;;;;;;15.73;11.95;;;5.20;94.00;;;;;;5029905;28;20088;-70
2022/04/11 05:28:52;;;;;;;12.98;9.43;;;5.40;94.20;;;;;;5036128;28;20033;-70
2022/04/11 05:31:18;;;;;;;7.30;4.85;;;5.70;93.50;;;;;;5034954;28;20131;-71
2022/04/11 05:33:44;;;;;;;4.18;3.35;;;6.00;93.00;;;;;;5034480;28;20043;-70
2022/04/11 05:36:10;;;;;;;4.78;2.60;;;6.20;92.70;;;;;;5040611;28;20241;-70
2022/04/11 05:38:36;;;;;;;7.25;4.13;;;6.30;92.80;;;;;;5034014;28;20025;-71
2022/04/11 05:41:02;;;;;;;4.10;3.25;;;6.40;93.20;;;;;;5037188;28;20045;-72
2022/04/11 05:43:28;;;;;;;3.75;2.75;;;6.60;93.00;;;;;;5039425;28;20760;-71
2022/04/11 05:45:53;;;;;;;3.85;2.83;;;6.80;92.50;;;;;;5037859;28;20060;-71
2022/04/11 05:48:19;;;;;;;8.27;3.13;;;7.10;92.00;;;;;;5038426;28;20040;-71
2022/04/11 05:50:45;;;;;;;7.32;3.80;;;7.30;91.50;;;;;;5035978;28;21119;-70
2022/04/11 05:53:11;;;;;;;3.40;2.20;;;7.60;91.30;;;;;;5037446;28;20029;-72
2022/04/11 05:55:36;;;;;;;2.80;2.33;;;7.80;90.20;;;;;;5033208;28;20037;-70
2022/04/11 05:58:02;;;;;;;3.88;2.03;;;8.00;89.70;;;;;;5037227;28;20143;-70
2022/04/11 06:00:28;;;;;;;2.78;1.75;;;8.10;89.30;;;;;;5033232;28;20094;-70
2022/04/11 06:02:53;;;;;;;2.83;1.98;;;8.30;87.90;;;;;;5033414;28;20044;-70
2022/04/11 06:05:19;;;;;;;3.28;2.20;;;8.50;87.50;;;;;;5034840;28;20044;-70
2022/04/11 06:07:45;;;;;;;2.83;1.88;;;8.60;86.90;;;;;;5038116;28;20052;-70
2022/04/11 06:10:12;;;;;;;3.08;2.15;;;8.60;85.50;;;;;;5029806;28;20388;-70
2022/04/11 06:12:38;;;;;;;3.40;2.05;;;8.70;85.10;;;;;;5030198;28;20033;-68
2022/04/11 06:15:05;;;;;;;2.42;1.83;;;8.70;85.70;;;;;;5035124;28;20033;-69
2022/04/11 06:17:31;;;;;;;2.70;1.60;;;8.70;83.80;;;;;;5039566;28;20573;-69
2022/04/11 06:19:58;;;;;;;3.08;1.83;;;8.80;83.90;;;;;;5040270;28;20119;-69
2022/04/11 06:22:25;;;;;;;1.98;1.60;;;8.90;84.10;;;;;;5035964;28;20401;-69
2022/04/11 06:24:58;;;;;;;2.33;1.83;;;8.90;81.50;;;;;;5039972;28;20397;-69
2022/04/11 06:27:23;;;;;;;3.60;2.13;;;9.00;81.40;;;;;;5037405;28;20021;-69
2022/04/11 06:29:56;;;;;;;2.25;1.60;;;9.10;81.30;;;;;;5039359;28;20041;-70
2022/04/11 06:32:29;;;;;;;2.97;2.10;;;9.20;79.90;;;;;;5035264;28;20052;-69
2022/04/11 06:34:55;;;;;;;5.10;1.80;;;8.90;83.20;;;;;;5035570;28;20037;-69
2022/04/11 06:37:24;;;;;;;2.20;2.00;;;8.90;83.90;;;;;;5037796;28;20022;-69
2022/04/11 06:39:51;;;;;;;2.65;2.08;;;9.00;83.10;;;;;;5039368;28;20029;-69
2022/04/11 06:42:17;;;;;;;3.45;2.00;;;9.10;81.20;;;;;;5036654;28;20029;-69
2022/04/11 06:44:42;;;;;;;2.92;1.50;;;9.20;81.40;;;;;;5033681;28;20029;-69
2022/04/11 06:47:08;;;;;;;1.98;1.60;;;9.20;80.20;;;;;;5036122;28;20039;-69
2022/04/11 06:49:38;;;;;;;2.60;1.45;;;9.30;79.90;;;;;;5031014;28;20517;-69
2022/04/11 06:52:05;;;;;;;3.45;2.05;;;9.40;81.30;;;;;;5037323;28;20033;-69
2022/04/11 06:54:31;;;;;;;1.90;1.80;;;9.40;81.20;;;;;;5034676;28;20682;-69
2022/04/11 06:56:57;;;;;;;1.75;1.60;;;9.50;79.90;;;;;;5035217;28;20087;-70
2022/04/11 06:59:23;;;;;;;1.75;1.20;;;9.30;79.10;;;;;;5033867;28;20123;-69
2022/04/11 07:01:51;;;;;;;3.35;1.80;;;9.10;76.30;;;;;;5035398;28;20033;-69
2022/04/11 07:04:17;;;;;;;1.80;1.60;;;9.10;78.90;;;;;;5035530;28;20486;-69
2022/04/11 07:06:43;;;;;;;2.28;1.77;;;9.10;79.40;;;;;;5037188;28;20712;-69
2022/04/11 07:09:09;;;;;;;1.92;1.70;;;9.10;77.00;;;;;;5029662;28;20047;-69
2022/04/11 07:11:34;;;;;;;6.00;1.95;;;9.20;79.50;;;;;;5029300;28;20168;-69
2022/04/11 07:14:00;;;;;;;2.75;1.70;;;9.30;78.70;;;;;;5018764;28;20044;-70
2022/04/11 07:16:26;;;;;;;2.60;1.33;;;9.30;75.40;;;;;;5030021;28;20033;-70
2022/04/11 07:18:51;;;;;;;2.03;1.48;;;9.20;77.90;;;;;;5032049;28;20087;-69
2022/04/11 07:21:18;;;;;;;3.63;1.80;;;9.40;76.40;;;;;;5025223;28;20382;-70
2022/04/11 07:23:44;;;;;;;1.67;0.95;;;9.40;74.10;;;;;;5024657;28;20267;-69
2022/04/11 07:26:10;;;;;;;3.30;1.23;;;9.50;71.10;;;;;;5027401;28;20032;-68
2022/04/11 07:28:35;;;;;;;1.50;0.88;;;9.50;71.70;;;;;;5032384;28;20029;-69
2022/04/11 07:31:01;;;;;;;2.55;0.90;;;9.50;68.30;;;;;;5035083;28;20524;-69
2022/04/11 07:33:27;;;;;;;2.15;0.88;;;9.40;67.10;;;;;;5035859;28;20077;-69
2022/04/11 07:35:53;;;;;;;1.10;0.80;;;9.40;70.00;;;;;;5035031;28;20140;-69
2022/04/11 07:38:19;;;;;;;2.17;0.93;;;9.40;71.70;;;;;;5031882;28;20017;-69
2022/04/11 07:40:44;;;;;;;1.40;0.70;;;9.70;69.30;;;;;;5031560;28;20033;-70
2022/04/11 07:43:10;;;;;;;2.85;0.95;;;9.80;66.50;;;;;;5029753;28;20712;-69
2022/04/11 07:45:36;;;;;;;0.95;0.60;;;9.90;71.20;;;;;;5031217;28;20037;-70
2022/04/11 07:48:02;;;;;;;2.15;0.80;;;10.10;65.20;;;;;;5040321;28;20123;-70
2022/04/11 07:50:28;;;;;;;1.50;0.90;;;10.20;65.40;;;;;;5034709;28;20514;-70
2022/04/11 07:52:53;;;;;;;1.98;1.00;;;10.30;66.50;;;;;;5036417;28;20037;-69
2022/04/11 07:55:19;;;;;;;1.23;0.70;;;10.40;66.10;;;;;;5041290;28;20028;-70
2022/04/11 07:57:45;;;;;;;1.08;0.52;;;10.30;63.40;;;;;;5036900;28;20060;-70
2022/04/11 08:00:11;;;;;;;3.20;0.90;;;10.20;64.50;;;;;;5039872;28;20040;-69
2022/04/11 08:02:37;;;;;;;2.67;0.60;;;10.20;62.60;;;;;;5041033;28;20099;-70
2022/04/11 08:05:07;;;;;;;1.77;0.73;;;10.20;62.20;;;;;;5038659;28;20029;-69
2022/04/11 08:07:34;;;;;;;0.93;0.55;;;10.30;63.50;;;;;;5030945;28;20108;-69
2022/04/11 08:10:04;;;;;;;2.15;0.73;;;10.40;62.40;;;;;;5034954;28;20048;-69
2022/04/11 08:12:30;;;;;;;2.85;0.80;;;10.30;57.90;;;;;;5039006;28;20173;-69
2022/04/11 08:14:56;;;;;;;2.67;0.90;;;10.30;58.90;;;;;;5034619;28;20930;-70
2022/04/11 08:17:22;;;;;;;1.30;0.70;;;10.30;62.70;;;;;;5040380;28;20394;-69
2022/04/11 08:19:47;;;;;;;0.55;0.55;;;10.30;62.30;;;;;;5034354;28;20073;-69
2022/04/11 08:22:13;;;;;;;1.75;0.80;;;10.20;62.10;;;;;;5036127;28;20163;-69
2022/04/11 08:24:38;;;;;;;1.63;0.73;;;10.20;62.50;;;;;;5036027;28;20340;-70
2022/04/11 08:27:04;;;;;;;2.05;0.90;;;10.20;62.30;;;;;;5042676;28;20130;-70
2022/04/11 08:29:30;;;;;;;2.83;0.73;;;10.30;62.40;;;;;;5040690;28;20048;-69
2022/04/11 08:31:56;;;;;;;1.70;0.80;;;10.40;62.90;;;;;;5037867;28;20116;-70
2022/04/11 08:34:21;;;;;;;2.35;0.98;;;10.40;62.90;;;;;;5039889;28;20052;-70
2022/04/11 08:36:48;;;;;;;0.77;0.73;;;10.50;64.00;;;;;;5043164;28;20112;-70
2022/04/11 08:39:14;;;;;;;0.88;0.70;;;10.70;61.60;;;;;;5042672;28;20055;-70
2022/04/11 08:41:39;;;;;;;2.78;0.90;;;10.80;65.60;;;;;;5037971;28;20025;-70
2022/04/11 08:44:06;;;;;;;1.48;0.57;;;11.00;61.50;;;;;;5039557;28;20078;-70
2022/04/11 08:46:33;;;;;;;0.45;0.45;;;11.20;61.60;;;;;;5044239;28;20177;-70
2022/04/11 08:49:03;;;;;;;4.10;0.85;;;11.10;59.30;;;;;;5041370;28;20041;-70
2022/04/11 08:51:33;;;;;;;0.80;0.65;;;11.00;56.80;;;;;;5041652;28;20068;-70
2022/04/11 08:54:05;;;;;;;0.75;0.63;;;10.80;58.00;;;;;;5040263;28;20044;-70
2022/04/11 08:56:31;;;;;;;0.50;0.50;;;10.70;57.50;;;;;;5042855;28;20021;-69
2022/04/11 08:58:57;;;;;;;1.48;0.73;;;10.60;58.80;;;;;;5044303;28;20036;-69
2022/04/11 09:01:24;;;;;;;2.08;0.82;;;10.60;60.00;;;;;;5040624;28;20573;-69
2022/04/11 09:03:50;;;;;;;1.60;0.80;;;10.50;59.50;;;;;;5039326;28;20150;-70
2022/04/11 09:06:17;;;;;;;3.78;0.82;;;10.30;60.30;;;;;;5040890;28;20048;-69
2022/04/11 09:08:58;;;;;;;0.95;0.63;;;10.20;59.80;;;;;;5042554;28;20029;-69
2022/04/11 09:11:35;;;;;;;1.10;0.80;;;10.20;61.00;;;;;;5039358;28;20094;-69
2022/04/11 09:14:03;;;;;;;1.33;0.70;;;10.20;61.00;;;;;;5031778;28;22381;-69
2022/04/11 09:16:47;;;;;;;1.58;0.60;;;10.20;59.50;;;;;;5039886;28;20469;-69
2022/04/11 09:19:20;;;;;;;1.20;0.90;;;10.40;60.80;;;;;;5035146;28;20651;-69
2022/04/11 09:21:45;;;;;;;;;;;10.60;63.80;;;;;;5039652;28;20120;-69
2022/04/11 09:24:22;;;;;;;1.13;0.68;;;10.90;63.00;;;;;;5037888;28;20346;-69
2022/04/11 09:26:50;;;;;;;1.05;0.85;;;11.00;58.60;;;;;;5033999;28;20029;-69
2022/04/11 09:29:15;;;;;;;1.92;1.10;;;10.80;56.50;;;;;;5035222;28;20032;-69
2022/04/11 09:31:42;;;;;;;1.40;0.63;;;10.50;58.50;;;;;;5040294;28;20033;-71
2022/04/11 09:34:13;;;;;;;1.30;0.90;;;10.30;59.50;;;;;;5042345;28;20100;-70
2022/04/11 09:36:45;;;;;;;0.98;0.80;;;10.40;60.20;;;;;;5037378;28;20036;-71
2022/04/11 09:39:10;;;;;;;1.88;1.10;;;10.60;61.10;;;;;;5038368;28;20034;-69
2022/04/11 09:41:46;;;;;;;1.38;1.23;;;11.00;59.30;;;;;;5039344;28;20106;-69
2022/04/11 09:44:33;;;;;;;1.00;0.90;;;11.10;60.40;;;;;;5037136;28;20021;-70
2022/04/11 09:47:01;;;;;;;1.70;0.90;;;11.20;61.50;;;;;;5042557;28;20744;-69
2022/04/11 09:49:27;;;;;;;2.83;1.48;;;11.10;59.20;;;;;;5033380;28;20037;-70
2022/04/11 09:52:12;;;;;;;4.20;1.33;;;11.00;62.50;;;;;;5037718;28;20047;-69
2022/04/11 09:54:40;;;;;;;1.75;1.17;;;10.80;61.40;;;;;;5034619;28;20033;-70
2022/04/11 09:57:06;;;;;;;1.33;1.23;;;10.70;61.40;;;;;;5034336;28;20060;-69
2022/04/11 09:59:33;;;;;;;1.65;1.10;;;10.60;59.20;;;;;;5027154;28;20272;-70
2022/04/11 10:01:59;;;;;;;1.17;1.00;;;10.60;61.90;;;;;;5042650;28;20112;-70
2022/04/11 10:04:26;;;;;;;2.55;1.55;;;10.60;61.50;;;;;;5037680;28;20108;-70
2022/04/11 10:06:53;;;;;;;1.70;1.48;;;10.50;62.80;;;;;;5040679;28;20079;-70
2022/04/11 10:09:21;;;;;;;2.10;1.50;;;10.40;63.70;;;;;;5037870;28;20064;-71
2022/04/11 10:11:47;;;;;;;3.80;1.40;;;10.50;65.50;;;;;;5034915;28;20446;-70
2022/04/11 10:14:23;;;;;;;2.15;1.60;;;10.70;62.40;;;;;;5033827;28;20112;-71
2022/04/11 10:16:50;;;;;;;1.50;1.40;;;10.60;62.40;;;;;;5030715;28;20393;-71
2022/04/11 10:19:21;;;;;;;1.48;1.30;;;10.30;62.30;;;;;;5035206;28;20108;-71
2022/04/11 10:21:48;;;;;;;1.65;1.33;;;10.10;63.40;;;;;;5039094;28;20434;-70
2022/04/11 10:24:22;;;;;;;1.20;1.10;;;10.20;66.60;;;;;;5039068;28;20025;-70
2022/04/11 10:26:54;;;;;;;1.92;1.10;;;10.50;63.30;;;;;;5036840;28;20573;-69
2022/04/11 10:29:38;;;;;;;1.75;1.15;;;10.60;62.40;;;;;;5045502;28;20090;-70
2022/04/11 10:32:09;;;;;;;0.80;0.80;;;10.80;59.70;;;;;;5037391;28;20036;-70
2022/04/11 10:34:54;;;;;;;2.50;1.30;;;10.70;59.50;;;;;;5034830;28;20036;-70
2022/04/11 10:37:25;;;;;;;2.35;1.27;;;10.60;61.80;;;;;;5038357;28;20379;-70
2022/04/11 10:39:53;;;;;;;1.33;0.93;;;10.50;60.30;;;;;;5037475;28;20171;-69
2022/04/11 10:42:25;;;;;;;1.92;0.93;;;10.60;61.60;;;;;;5034377;28;20025;-71
2022/04/11 10:44:56;;;;;;;1.00;0.90;;;10.70;60.70;;;;;;5032378;28;20036;-70
2022/04/11 10:47:32;;;;;;;2.25;0.93;;;10.80;58.80;;;;;;5037075;28;20021;-69
2022/04/11 10:49:57;;;;;;;3.60;0.90;;;10.90;57.50;;;;;;5038339;28;20043;-70
2022/04/11 10:52:41;;;;;;;3.90;0.90;;;10.80;61.00;;;;;;5041326;28;20021;-69
2022/04/11 10:55:11;;;;;;;1.33;0.90;;;10.50;58.10;;;;;;5037335;28;20025;-69
2022/04/11 10:57:44;;;;;;;2.97;0.95;;;10.50;57.30;;;;;;5035238;28;20112;-70
2022/04/11 11:00:13;;;;;;;1.25;0.75;;;10.80;58.50;;;;;;5032140;28;20115;-69
2022/04/11 11:02:52;;;;;;;1.35;1.02;;;11.20;61.10;;;;;;5037705;28;20104;-70
2022/04/11 11:05:24;;;;;;;1.30;1.20;;;11.30;57.60;;;;;;5037911;28;20772;-70
2022/04/11 11:08:10;;;;;;;1.30;1.10;;;11.00;60.30;;;;;;5030218;28;20044;-70
2022/04/11 11:10:49;;;;;;;1.00;0.90;;;10.80;61.30;;;;;;5036349;28;20037;-70
2022/04/11 11:13:41;;;;;;;2.78;1.17;;;10.70;61.20;;;;;;5035704;28;20338;-70
2022/04/11 11:16:07;;;;;;;1.30;1.17;;;10.60;60.30;;;;;;5035116;28;20709;-69
2022/04/11 11:18:51;;;;;;;2.60;1.27;;;10.60;60.90;;;;;;5034619;28;20036;-69
2022/04/11 11:21:28;;;;;;;1.48;0.90;;;10.70;59.10;;;;;;5031726;28;20127;-70
2022/04/11 11:24:12;;;;;;;0.73;0.73;;;10.80;59.90;;;;;;5033317;28;20092;-70
2022/04/11 11:26:48;;;;;;;1.38;0.60;;;11.10;58.70;;;;;;5031794;28;20116;-69
2022/04/11 11:29:23;;;;;;;2.13;0.80;;;11.30;53.80;;;;;;5033867;28;20040;-70
2022/04/11 11:31:54;;;;;;;1.38;0.68;;;11.20;49.70;;;;;;5034096;28;20082;-69
2022/04/11 11:34:22;;;;;;;2.40;1.13;;;11.10;50.40;;;;;;5034458;28;20086;-70
2022/04/11 11:36:48;;;;;;;1.65;1.00;;;11.00;57.60;;;;;;5035300;28;20521;-70
2022/04/11 11:39:21;;;;;;;1.25;1.10;;;11.00;58.60;;;;;;5030866;28;20033;-70
2022/04/11 11:41:51;;;;;;;1.23;1.10;;;11.30;58.10;;;;;;5043019;28;20450;-71
2022/04/11 11:44:18;;;;;;;1.23;1.10;;;11.60;59.20;;;;;;5032719;28;20048;-69
2022/04/11 11:46:49;;;;;;;1.48;1.10;;;11.60;59.60;;;;;;5035487;28;20082;-69
2022/04/11 11:49:16;;;;;;;1.80;0.98;;;11.50;59.00;;;;;;5033831;28;20108;-70
2022/04/11 11:51:42;;;;;;;1.33;1.05;;;11.80;60.40;;;;;;5035241;28;20094;-71
2022/04/11 11:54:08;;;;;;;1.73;1.27;;;12.10;58.60;;;;;;5031541;28;20056;-70
2022/04/11 11:56:40;;;;;;;1.95;0.80;;;12.00;57.50;;;;;;5034529;28;20042;-69
2022/04/11 11:59:06;;;;;;;2.25;0.70;;;12.00;56.40;;;;;;5029662;28;20123;-69
2022/04/11 12:01:32;;;;;;;0.52;0.52;;;12.10;55.00;;;;;;5045971;28;20136;-70
2022/04/11 12:06:42;;;;;;;2.17;0.55;;;12.40;52.90;;;;;;5039865;28;20171;-70
2022/04/11 12:09:08;;;;;;;2.15;0.70;;;12.40;48.30;;;;;;5037291;28;20443;-70
2022/04/11 12:11:34;;;;;;;5.00;0.90;;;12.50;55.30;;;;;;5040744;28;20125;-69
2022/04/11 12:14:09;;;;;;;1.67;0.82;;;12.40;54.30;;;;;;5036530;28;20029;-69
2022/04/11 12:16:38;;;;;;;8.20;1.20;;;12.00;53.90;;;;;;5036373;28;20033;-69
2022/04/11 12:19:05;;;;;;;2.72;0.88;;;12.00;57.90;;;;;;5033521;28;21553;-70
2022/04/11 12:21:32;;;;;;;1.05;0.95;;;12.30;55.10;;;;;;5031015;28;20148;-70
2022/04/11 12:23:58;;;;;;;1.58;0.70;;;12.40;56.60;;;;;;5034606;28;20040;-70
2022/04/11 12:26:36;;;;;;;0.98;0.80;;;12.70;55.40;;;;;;5042402;28;20025;-69
2022/04/11 12:29:08;;;;;;;2.80;0.93;;;12.80;55.90;;;;;;5042448;28;20025;-68
2022/04/11 12:31:34;;;;;;;0.70;0.70;;;12.70;52.90;;;;;;5038431;28;20120;-67
2022/04/11 12:34:12;;;;;;;1.10;1.00;;;12.60;54.10;;;;;;5043330;28;20512;-69
2022/04/11 12:36:56;;;;;;;0.70;0.70;;;12.50;54.80;;;;;;5038181;28;20045;-69
2022/04/11 12:39:25;;;;;;;0.82;0.70;;;12.60;55.00;;;;;;5038449;28;20058;-69
2022/04/11 12:41:51;;;;;;;0.90;0.80;;;12.60;51.70;;;;;;5039831;28;20033;-69
2022/04/11 12:44:21;;;;;;;2.42;0.82;;;12.60;52.30;;;;;;5043304;28;20110;-68
2022/04/11 12:46:48;;;;;;;0.80;0.50;;;12.40;49.90;;;;;;5036079;28;20044;-69
2022/04/11 12:49:16;;;;;;;0.93;0.77;;;12.60;52.60;;;;;;5038783;28;20078;-68
2022/04/11 12:51:42;;;;;;;0.70;0.47;;;12.60;50.10;;;;;;5038070;28;20035;-68
2022/04/11 12:54:13;;;;;;;3.08;0.68;;;12.60;49.30;;;;;;5040734;28;20031;-69
2022/04/11 12:56:43;;;;;;;1.77;0.57;;;12.70;51.10;;;;;;5031851;28;20033;-68
2022/04/11 12:59:10;;;;;;;0.82;0.47;;;12.90;49.60;;;;;;5040976;28;20016;-69